Time,TemperatureF,DewpointF,PressureIn,WindDirection,WindDirectionDegrees,WindSpeedMPH,WindSpeedGustMPH,Humidity,HourlyPrecipIn,Conditions,Clouds,dailyrainin,SolarRadiationWatts/m^2,SoftwareType,DateUTC
2013-01-11 00:02:00,27.0,15.0,-100.00,North,355,0.0,2.0,60,0.00,,,0.00,0.000000,,2013-01-11 08:02:00,
2013-01-11 00:12:00,27.0,15.0,-100.00,North,355,0.0,2.0,60,0.00,,,0.00,0.000000,,2013-01-11 08:12:00,
2013-01-11 00:22:00,27.0,15.0,-100.00,North,355,0.0,2.0,60,0.00,,,0.00,0.000000,,2013-01-11 08:22:00,
2013-01-11 00:52:00,27.0,15.0,-100.00,NW,323,0.0,4.0,59,0.00,,,0.00,0.000000,,2013-01-11 08:52:00,
2013-01-11 01:02:00,27.0,15.0,-100.00,NW,323,0.0,4.0,59,0.00,,,0.00,0.000000,,2013-01-11 09:02:00,
2013-01-11 01:12:00,27.0,15.0,-100.00,NW,323,0.0,4.0,59,0.00,,,0.00,0.000000,,2013-01-11 09:12:00,
2013-01-11 01:22:00,27.0,15.0,-100.00,NW,323,0.0,4.0,59,0.00,,,0.00,0.000000,,2013-01-11 09:22:00,
2013-01-11 01:52:00,27.0,16.0,-100.00,ESE,108,0.0,4.0,62,0.00,,,0.00,0.000000,,2013-01-11 09:52:00,
2013-01-11 02:02:00,27.0,16.0,-100.00,ESE,108,0.0,4.0,62,0.00,,,0.00,0.000000,,2013-01-11 10:02:00,
2013-01-11 02:12:00,27.0,16.0,-100.00,ESE,108,0.0,4.0,62,0.00,,,0.00,0.000000,,2013-01-11 10:12:00,
2013-01-11 02:22:00,27.0,16.0,-100.00,ESE,108,0.0,4.0,62,0.00,,,0.00,0.000000,,2013-01-11 10:22:00,
2013-01-11 02:52:00,25.0,14.0,-100.00,NNE,33,0.0,5.0,62,0.00,,,0.00,0.000000,,2013-01-11 10:52:00,
2013-01-11 03:02:00,25.0,14.0,-100.00,NNE,33,0.0,5.0,62,0.00,,,0.00,0.000000,,2013-01-11 11:02:00,
2013-01-11 03:12:00,25.0,14.0,-100.00,NNE,33,0.0,5.0,62,0.00,,,0.00,0.000000,,2013-01-11 11:12:00,
2013-01-11 03:22:00,25.0,14.0,-100.00,NNE,33,0.0,5.0,62,0.00,,,0.00,0.000000,,2013-01-11 11:22:00,
2013-01-11 03:53:00,23.0,11.0,-100.00,SE,144,3.0,5.0,59,0.00,,,0.00,0.000000,,2013-01-11 11:53:00,
2013-01-11 04:02:00,23.0,11.0,-100.00,SE,144,3.0,5.0,59,0.00,,,0.00,0.000000,,2013-01-11 12:02:00,
2013-01-11 04:12:00,23.0,11.0,-100.00,SE,144,3.0,5.0,59,0.00,,,0.00,0.000000,,2013-01-11 12:12:00,
2013-01-11 04:22:00,23.0,11.0,-100.00,SE,144,3.0,5.0,59,0.00,,,0.00,0.000000,,2013-01-11 12:22:00,
2013-01-11 04:53:00,23.0,12.0,-100.00,NW,313,1.0,9.0,62,0.00,,,-99.99,0.000000,,2013-01-11 12:53:00,
2013-01-11 05:02:00,23.0,12.0,-100.00,NW,313,1.0,9.0,62,0.00,,,-99.99,0.000000,,2013-01-11 13:02:00,
2013-01-11 05:12:00,23.0,12.0,-100.00,NW,313,1.0,9.0,62,0.00,,,-99.99,0.000000,,2013-01-11 13:12:00,
2013-01-11 05:22:00,23.0,12.0,-100.00,NW,313,1.0,9.0,62,0.00,,,-99.99,0.000000,,2013-01-11 13:22:00,
2013-01-11 05:53:00,23.0,12.0,-100.00,NW,326,0.0,4.0,63,0.00,,,-99.99,0.000000,,2013-01-11 13:53:00,
2013-01-11 06:03:00,23.0,12.0,-100.00,NW,326,0.0,4.0,63,0.00,,,-99.99,0.000000,,2013-01-11 14:03:00,
2013-01-11 06:12:00,23.0,12.0,-100.00,NW,326,0.0,4.0,63,0.00,,,-99.99,0.000000,,2013-01-11 14:12:00,
2013-01-11 06:22:00,23.0,12.0,-100.00,NW,326,0.0,4.0,63,0.00,,,-99.99,0.000000,,2013-01-11 14:22:00,
2013-01-11 06:53:00,24.0,13.0,-100.00,NNE,31,0.0,3.0,61,0.00,,,0.00,0.000000,,2013-01-11 14:53:00,
2013-01-11 07:03:00,24.0,13.0,-100.00,NNE,31,0.0,3.0,61,0.00,,,0.00,0.000000,,2013-01-11 15:03:00,
2013-01-11 07:12:00,24.0,13.0,-100.00,NNE,31,0.0,3.0,61,0.00,,,0.00,0.000000,,2013-01-11 15:12:00,
2013-01-11 07:22:00,24.0,13.0,-100.00,NNE,31,0.0,3.0,61,0.00,,,0.00,0.000000,,2013-01-11 15:22:00,
2013-01-11 07:53:00,25.0,12.0,-100.00,North,353,0.0,2.0,58,0.00,,,0.00,0.000000,,2013-01-11 15:53:00,
2013-01-11 08:02:00,25.0,12.0,-100.00,North,353,0.0,2.0,58,0.00,,,0.00,0.000000,,2013-01-11 16:02:00,
2013-01-11 08:12:00,25.0,12.0,-100.00,North,353,0.0,2.0,58,0.00,,,0.00,0.000000,,2013-01-11 16:12:00,
2013-01-11 08:22:00,25.0,12.0,-100.00,North,353,0.0,2.0,58,0.00,,,0.00,0.000000,,2013-01-11 16:22:00,
2013-01-11 08:53:00,25.0,13.0,-100.00,ENE,66,0.0,3.0,59,0.00,,,0.00,6.000000,,2013-01-11 16:53:00,
2013-01-11 09:03:00,25.0,13.0,-100.00,ENE,66,0.0,3.0,59,0.00,,,0.00,6.000000,,2013-01-11 17:03:00,
2013-01-11 09:12:00,25.0,13.0,-100.00,ENE,66,0.0,3.0,59,0.00,,,0.00,6.000000,,2013-01-11 17:12:00,
2013-01-11 09:22:00,25.0,13.0,-100.00,ENE,66,0.0,3.0,59,0.00,,,0.00,6.000000,,2013-01-11 17:22:00,
2013-01-11 09:53:00,28.0,15.0,-100.00,North,11,0.0,4.0,57,0.00,,,0.00,56.000000,,2013-01-11 17:53:00,
2013-01-11 10:03:00,28.0,15.0,-100.00,North,11,0.0,4.0,57,0.00,,,0.00,56.000000,,2013-01-11 18:03:00,
2013-01-11 10:12:00,28.0,15.0,-100.00,North,11,0.0,4.0,57,0.00,,,0.00,56.000000,,2013-01-11 18:12:00,
2013-01-11 10:23:00,28.0,15.0,-100.00,North,11,0.0,4.0,57,0.00,,,0.00,56.000000,,2013-01-11 18:23:00,
2013-01-11 10:53:00,31.0,16.0,-100.00,South,189,0.0,3.0,54,0.00,,,0.00,121.000000,,2013-01-11 18:53:00,
2013-01-11 11:02:00,31.0,16.0,-100.00,South,189,0.0,3.0,54,0.00,,,0.00,121.000000,,2013-01-11 19:02:00,
2013-01-11 11:12:00,31.0,16.0,-100.00,South,189,0.0,3.0,54,0.00,,,0.00,121.000000,,2013-01-11 19:12:00,
2013-01-11 11:22:00,31.0,16.0,-100.00,South,189,0.0,3.0,54,0.00,,,0.00,121.000000,,2013-01-11 19:22:00,
2013-01-11 11:53:00,31.0,15.0,-100.00,NNE,20,1.0,3.0,51,0.00,,,0.00,195.000000,,2013-01-11 19:53:00,
2013-01-11 12:02:00,31.0,15.0,-100.00,NNE,20,1.0,3.0,51,0.00,,,0.00,195.000000,,2013-01-11 20:02:00,
2013-01-11 12:12:00,31.0,15.0,-100.00,NNE,20,1.0,3.0,51,0.00,,,0.00,195.000000,,2013-01-11 20:12:00,
2013-01-11 12:22:00,31.0,15.0,-100.00,NNE,20,1.0,3.0,51,0.00,,,0.00,195.000000,,2013-01-11 20:22:00,
2013-01-11 12:53:00,35.0,15.0,-100.00,ENE,75,2.0,5.0,44,0.00,,,0.00,401.000000,,2013-01-11 20:53:00,
2013-01-11 13:03:00,35.0,15.0,-100.00,ENE,75,2.0,5.0,44,0.00,,,0.00,401.000000,,2013-01-11 21:03:00,
2013-01-11 13:12:00,35.0,15.0,-100.00,ENE,75,2.0,5.0,44,0.00,,,0.00,401.000000,,2013-01-11 21:12:00,
2013-01-11 13:22:00,35.0,15.0,-100.00,ENE,75,2.0,5.0,44,0.00,,,0.00,401.000000,,2013-01-11 21:22:00,
2013-01-11 13:53:00,35.0,18.0,-100.00,NNW,335,0.0,4.0,49,0.00,,,0.00,375.000000,,2013-01-11 21:53:00,
2013-01-11 14:02:00,35.0,18.0,-100.00,NNW,335,0.0,4.0,49,0.00,,,0.00,375.000000,,2013-01-11 22:02:00,
2013-01-11 14:12:00,35.0,18.0,-100.00,NNW,335,0.0,4.0,49,0.00,,,0.00,375.000000,,2013-01-11 22:12:00,
2013-01-11 14:22:00,35.0,18.0,-100.00,NNW,335,0.0,4.0,49,0.00,,,0.00,375.000000,,2013-01-11 22:22:00,
2013-01-11 14:53:00,33.0,12.0,-100.00,NE,49,2.0,5.0,41,0.00,,,0.00,288.000000,,2013-01-11 22:53:00,
2013-01-11 15:02:00,33.0,12.0,-100.00,NE,49,2.0,5.0,41,0.00,,,0.00,288.000000,,2013-01-11 23:02:00,
2013-01-11 15:12:00,33.0,12.0,-100.00,NE,49,2.0,5.0,41,0.00,,,0.00,288.000000,,2013-01-11 23:12:00,
2013-01-11 15:22:00,33.0,12.0,-100.00,NE,49,2.0,5.0,41,0.00,,,0.00,288.000000,,2013-01-11 23:22:00,
2013-01-11 15:53:00,34.0,12.0,-100.00,SSW,203,0.0,5.0,40,0.00,,,0.00,132.000000,,2013-01-11 23:53:00,
2013-01-11 16:02:00,34.0,12.0,-100.00,SSW,203,0.0,5.0,40,0.00,,,0.00,132.000000,,2013-01-12 00:02:00,
2013-01-11 16:12:00,34.0,12.0,-100.00,SSW,203,0.0,5.0,40,0.00,,,0.00,132.000000,,2013-01-12 00:12:00,
2013-01-11 16:22:00,34.0,12.0,-100.00,SSW,203,0.0,5.0,40,0.00,,,0.00,132.000000,,2013-01-12 00:22:00,
2013-01-11 16:53:00,28.0,10.0,-100.00,West,266,0.0,4.0,47,0.00,,,0.00,31.000000,,2013-01-12 00:53:00,
2013-01-11 17:02:00,28.0,10.0,-100.00,West,266,0.0,4.0,47,0.00,,,0.00,31.000000,,2013-01-12 01:02:00,
2013-01-11 17:12:00,28.0,10.0,-100.00,West,266,0.0,4.0,47,0.00,,,0.00,31.000000,,2013-01-12 01:12:00,
2013-01-11 17:22:00,28.0,10.0,-100.00,West,266,0.0,4.0,47,0.00,,,0.00,31.000000,,2013-01-12 01:22:00,
2013-01-11 17:52:00,26.0,12.0,-100.00,West,271,0.0,4.0,55,0.00,,,0.00,1.000000,,2013-01-12 01:52:00,
2013-01-11 18:02:00,26.0,12.0,-100.00,West,271,0.0,4.0,55,0.00,,,0.00,1.000000,,2013-01-12 02:02:00,
2013-01-11 18:12:00,26.0,12.0,-100.00,West,271,0.0,4.0,55,0.00,,,0.00,1.000000,,2013-01-12 02:12:00,
2013-01-11 18:22:00,26.0,12.0,-100.00,West,271,0.0,4.0,55,0.00,,,0.00,1.000000,,2013-01-12 02:22:00,
2013-01-11 18:53:00,23.0,10.0,-100.00,ENE,59,0.0,3.0,58,0.00,,,0.00,0.000000,,2013-01-12 02:53:00,
2013-01-11 19:02:00,23.0,10.0,-100.00,ENE,59,0.0,3.0,58,0.00,,,0.00,0.000000,,2013-01-12 03:02:00,
2013-01-11 19:12:00,23.0,10.0,-100.00,ENE,59,0.0,3.0,58,0.00,,,0.00,0.000000,,2013-01-12 03:12:00,
2013-01-11 19:22:00,23.0,10.0,-100.00,ENE,59,0.0,3.0,58,0.00,,,0.00,0.000000,,2013-01-12 03:22:00,
2013-01-11 19:53:00,22.0,11.0,-100.00,North,354,1.0,7.0,62,0.00,,,0.00,0.000000,,2013-01-12 03:53:00,
2013-01-11 20:02:00,22.0,11.0,-100.00,North,354,1.0,7.0,62,0.00,,,0.00,0.000000,,2013-01-12 04:02:00,
2013-01-11 20:12:00,22.0,11.0,-100.00,North,354,1.0,7.0,62,0.00,,,0.00,0.000000,,2013-01-12 04:12:00,
2013-01-11 20:22:00,22.0,11.0,-100.00,North,354,1.0,7.0,62,0.00,,,0.00,0.000000,,2013-01-12 04:22:00,
2013-01-11 20:52:00,22.0,11.0,-100.00,North,6,0.0,4.0,62,0.00,,,0.00,0.000000,,2013-01-12 04:52:00,
2013-01-11 21:03:00,22.0,11.0,-100.00,North,6,0.0,4.0,62,0.00,,,0.00,0.000000,,2013-01-12 05:03:00,
2013-01-11 21:12:00,22.0,11.0,-100.00,North,6,0.0,4.0,62,0.00,,,0.00,0.000000,,2013-01-12 05:12:00,
2013-01-11 21:22:00,22.0,11.0,-100.00,North,6,0.0,4.0,62,0.00,,,0.00,0.000000,,2013-01-12 05:22:00,
2013-01-11 21:52:00,21.0,10.0,-100.00,North,8,3.0,4.0,63,0.00,,,0.00,0.000000,,2013-01-12 05:52:00,
2013-01-11 22:02:00,21.0,10.0,-100.00,North,8,3.0,4.0,63,0.00,,,0.00,0.000000,,2013-01-12 06:02:00,
2013-01-11 22:12:00,21.0,10.0,-100.00,North,8,3.0,4.0,63,0.00,,,0.00,0.000000,,2013-01-12 06:12:00,
2013-01-11 22:22:00,21.0,10.0,-100.00,North,8,3.0,4.0,63,0.00,,,0.00,0.000000,,2013-01-12 06:22:00,
2013-01-11 22:52:00,20.0,9.0,-100.00,NNW,348,0.0,5.0,63,0.00,,,0.00,0.000000,,2013-01-12 06:52:00,
2013-01-11 23:02:00,20.0,9.0,-100.00,NNW,348,0.0,5.0,63,0.00,,,0.00,0.000000,,2013-01-12 07:02:00,
2013-01-11 23:12:00,20.0,9.0,-100.00,NNW,348,0.0,5.0,63,0.00,,,0.00,0.000000,,2013-01-12 07:12:00,
2013-01-11 23:22:00,20.0,9.0,-100.00,NNW,348,0.0,5.0,63,0.00,,,0.00,0.000000,,2013-01-12 07:22:00,
2013-01-11 23:52:00,19.0,8.0,-100.00,NNE,24,0.0,6.0,61,0.00,,,0.00,0.000000,,2013-01-12 07:52:00,